Time;durP1;ratioP1;P1;durP2;ratioP2;P2;SDS_P1;SDS_P2;PMS_P1;PMS_P2;Temp;Humidity;BMP_temperature;BMP_pressure;BME280_temperature;BME280_humidity;BME280_pressure;Samples;Min_cycle;Max_cycle;Signal;HPM_P1;HPM_P2
2021/01/04 00:00:24;;;;;;;54.83;27.50;;;;;;;4.15;75.86;101978.02;1715063;83;21440;-53
2021/01/04 00:03:45;;;;;;;53.10;28.10;;;;;;;4.26;75.63;101963.31;1685956;83;21209;-53
2021/01/04 00:07:11;;;;;;;51.42;26.12;;;;;;;4.35;75.49;101959.13;1719101;83;21779;-53
2021/01/04 00:10:36;;;;;;;54.70;26.37;;;;;;;4.46;75.20;101968.80;1714827;83;21753;-53
2021/01/04 00:14:04;;;;;;;56.42;28.42;;;;;;;4.50;74.88;101975.27;1692475;83;21400;-53
2021/01/04 00:17:48;;;;;;;60.35;28.73;;;;;;;4.57;74.69;101969.85;1718347;83;21268;-53
2021/01/04 00:21:02;;;;;;;56.18;28.90;;;;;;;4.57;74.42;101977.98;1605782;89;21358;-53
2021/01/04 00:24:15;;;;;;;58.63;28.87;;;;;;;4.53;74.11;101975.07;1664993;85;21647;-54
2021/01/04 00:27:36;;;;;;;64.75;27.73;;;;;;;4.43;74.02;101973.94;1719818;83;21303;-53
2021/01/04 00:31:31;;;;;;;56.35;29.37;;;;;;;4.37;74.14;101968.03;1719878;82;21386;-53
2021/01/04 00:34:46;;;;;;;60.23;29.02;;;;;;;4.35;74.18;101971.32;1689634;83;21397;-53
2021/01/04 00:38:45;;;;;;;49.33;24.32;;;;;;;4.26;74.17;101968.73;1720231;82;21864;-53
2021/01/04 00:42:27;;;;;;;61.15;28.67;;;;;;;4.18;74.38;101966.10;1727465;83;21417;-53
2021/01/04 00:45:46;;;;;;;59.23;26.85;;;;;;;4.04;74.61;101967.45;1694547;84;21162;-53
2021/01/04 00:49:14;;;;;;;61.60;25.08;;;;;;;3.98;74.89;101946.17;1655782;85;21303;-52
2021/01/04 00:52:49;;;;;;;63.50;28.10;;;;;;;3.91;75.08;101936.20;1725909;83;21482;-53
2021/01/04 00:56:50;;;;;;;55.65;27.62;;;;;;;3.89;75.31;101941.30;1694732;84;21229;-53
2021/01/04 01:00:10;;;;;;;71.67;28.05;;;;;;;3.85;75.54;101926.22;1727575;83;21437;-53
2021/01/04 01:03:53;;;;;;;60.12;28.47;;;;;;;3.88;75.69;101934.16;1727066;81;21381;-54
2021/01/04 01:07:41;;;;;;;58.87;27.42;;;;;;;3.89;75.75;101938.59;1726498;83;21228;-54
2021/01/04 01:10:53;;;;;;;71.50;30.95;;;;;;;3.98;75.84;101947.53;1726923;83;21367;-53
2021/01/04 01:14:06;;;;;;;63.13;27.10;;;;;;;4.05;75.71;101948.39;1694611;83;21367;-54
2021/01/04 01:17:22;;;;;;;64.65;28.55;;;;;;;4.07;75.56;101947.82;1689592;84;21354;-54
2021/01/04 01:20:27;;;;;;;58.78;27.07;;;;;;;4.09;75.46;101943.15;1720048;83;21290;-54
2021/01/04 01:23:34;;;;;;;63.25;28.17;;;;;;;4.02;75.29;101948.59;1694884;83;21328;-54
2021/01/04 01:27:12;;;;;;;57.53;26.50;;;;;;;3.93;75.39;101942.88;1727762;83;21728;-54
2021/01/04 01:30:52;;;;;;;62.08;27.30;;;;;;;3.92;75.65;101940.63;1711412;83;21208;-54
2021/01/04 01:34:26;;;;;;;52.15;25.10;;;;;;;3.98;75.76;101930.77;1687656;83;21568;-54
2021/01/04 01:38:14;;;;;;;53.52;25.55;;;;;;;4.05;75.72;101921.30;1666455;84;21352;-54
2021/01/04 01:42:08;;;;;;;49.70;25.15;;;;;;;4.04;75.44;101922.24;1712424;83;21641;-52
2021/01/04 01:45:26;;;;;;;49.38;24.77;;;;;;;3.99;75.55;101925.75;1687637;85;21224;-54
2021/01/04 01:48:47;;;;;;;49.55;24.12;;;;;;;3.97;75.57;101920.91;1682745;84;21442;-54
2021/01/04 01:52:15;;;;;;;47.03;23.52;;;;;;;3.95;75.44;101935.02;1712384;83;21227;-55
2021/01/04 01:55:49;;;;;;;46.30;23.47;;;;;;;3.87;75.52;101941.40;1687555;85;21310;-53
2021/01/04 01:59:43;;;;;;;43.95;23.77;;;;;;;3.76;75.65;101941.19;1682271;84;21276;-53
2021/01/04 02:03:03;;;;;;;41.60;19.95;;;;;;;3.68;75.89;101936.73;1712359;82;21733;-53
2021/01/04 02:06:49;;;;;;;46.77;23.12;;;;;;;3.56;76.15;101928.02;1712623;83;21212;-54
2021/01/04 02:10:03;;;;;;;45.83;23.98;;;;;;;3.53;76.53;101933.62;1687627;85;21214;-55
2021/01/04 02:13:32;;;;;;;41.83;22.15;;;;;;;3.57;76.71;101928.39;1682390;84;21483;-53
2021/01/04 02:16:45;;;;;;;39.08;19.70;;;;;;;3.69;76.83;101930.84;1712413;83;21303;-54
2021/01/04 02:20:14;;;;;;;47.95;23.27;;;;;;;3.78;76.74;101928.44;1709671;83;21228;-53
2021/01/04 02:23:42;;;;;;;46.92;21.95;;;;;;;3.77;76.39;101928.53;1687750;83;21615;-53
2021/01/04 02:27:14;;;;;;;46.68;22.45;;;;;;;3.72;76.42;101921.17;1682444;85;21419;-53
2021/01/04 02:30:23;;;;;;;48.45;22.65;;;;;;;3.69;76.45;101915.48;1712555;84;21264;-53
2021/01/04 02:33:29;;;;;;;41.60;21.77;;;;;;;3.78;76.66;101901.83;1693980;82;21345;-53
2021/01/04 02:36:34;;;;;;;44.98;22.42;;;;;;;3.87;76.41;101907.54;1719704;83;21426;-53
2021/01/04 02:39:45;;;;;;;44.13;23.05;;;;;;;3.84;76.08;101892.84;1692572;83;21261;-53
2021/01/04 02:42:56;;;;;;;42.50;21.07;;;;;;;3.77;76.09;101892.85;1719429;82;21744;-53
2021/01/04 02:46:02;;;;;;;45.30;22.85;;;;;;;3.76;76.03;101906.49;1692558;85;21849;-53
2021/01/04 02:49:16;;;;;;;43.63;21.48;;;;;;;3.73;76.06;101917.48;1719517;82;21347;-53
2021/01/04 02:52:23;;;;;;;43.70;22.58;;;;;;;3.70;76.15;101917.20;1692665;85;21344;-53
2021/01/04 02:55:45;;;;;;;39.73;21.15;;;;;;;3.63;76.16;101918.53;1718047;83;21421;-55
2021/01/04 02:59:27;;;;;;;46.23;21.40;;;;;;;3.59;76.21;101929.18;1692873;83;21723;-54
2021/01/04 03:02:52;;;;;;;43.98;22.62;;;;;;;3.49;76.31;101927.98;1719794;82;21243;-54
2021/01/04 03:05:57;;;;;;;46.48;24.27;;;;;;;3.45;76.52;101922.39;1718730;83;21204;-53
2021/01/04 03:09:03;;;;;;;45.88;22.15;;;;;;;3.49;76.68;101909.55;1719875;82;21293;-53
2021/01/04 03:12:10;;;;;;;45.43;23.92;;;;;;;3.49;76.70;101909.55;1692323;85;21336;-53
2021/01/04 03:15:54;;;;;;;38.70;19.10;;;;;;;3.52;76.66;101906.14;1719682;83;21184;-53
2021/01/04 03:19:11;;;;;;;44.80;23.02;;;;;;;3.50;76.67;101905.86;1692648;83;21476;-53
2021/01/04 03:22:20;;;;;;;47.38;22.52;;;;;;;3.50;76.88;101898.62;1719590;83;21212;-53
2021/01/04 03:25:30;;;;;;;47.98;22.32;;;;;;;3.57;76.85;101901.83;1692674;85;21343;-54
2021/01/04 03:28:39;;;;;;;38.38;19.70;;;;;;;3.55;76.66;101895.63;1701695;82;21312;-54
2021/01/04 03:31:44;;;;;;;43.73;21.42;;;;;;;3.53;76.68;101911.97;1712556;84;21192;-54
2021/01/04 03:34:51;;;;;;;53.28;25.15;;;;;;;3.56;76.78;101916.31;1687777;83;21198;-53
2021/01/04 03:37:57;;;;;;;45.08;21.70;;;;;;;3.60;76.78;101917.38;1683324;84;21386;-52
2021/01/04 03:41:02;;;;;;;46.40;22.70;;;;;;;3.63;76.66;101918.53;1720085;83;21328;-53
2021/01/04 03:44:09;;;;;;;40.40;20.82;;;;;;;3.67;76.71;101914.69;1687766;83;21269;-53
2021/01/04 03:47:15;;;;;;;53.65;23.02;;;;;;;3.75;76.60;101925.04;1682848;85;21361;-55
2021/01/04 03:50:21;;;;;;;41.77;22.90;;;;;;;3.69;76.28;101922.25;1717220;83;21339;-54
2021/01/04 03:53:27;;;;;;;48.55;22.32;;;;;;;3.60;76.32;101920.59;1687706;83;21813;-54
2021/01/04 03:56:32;;;;;;;41.05;20.60;;;;;;;3.62;76.53;101922.22;1683022;85;21283;-55
2021/01/04 03:59:38;;;;;;;44.00;20.77;;;;;;;3.67;76.46;101926.88;1712226;82;21208;-55
2021/01/04 04:02:44;;;;;;;42.65;21.15;;;;;;;3.63;76.40;101932.08;1687743;83;21197;-55
2021/01/04 04:05:50;;;;;;;44.30;21.57;;;;;;;3.63;76.42;101927.16;1682728;85;21390;-54
2021/01/04 04:08:56;;;;;;;41.95;21.48;;;;;;;3.70;76.61;101929.86;1712415;82;21339;-54
2021/01/04 04:12:02;;;;;;;43.02;21.02;;;;;;;3.76;76.43;101933.07;1712974;84;21922;-55
2021/01/04 04:15:08;;;;;;;42.62;22.27;;;;;;;3.71;76.18;101931.13;1712653;83;21220;-55
2021/01/04 04:18:15;;;;;;;45.00;22.45;;;;;;;3.67;76.32;101936.35;1688251;83;21226;-55
2021/01/04 04:21:22;;;;;;;46.02;22.25;;;;;;;3.67;76.32;101932.77;1682868;85;21395;-55
2021/01/04 04:24:29;;;;;;;49.48;23.20;;;;;;;3.67;76.40;101926.88;1712501;82;21332;-54
2021/01/04 04:27:35;;;;;;;48.23;22.75;;;;;;;3.70;76.34;101930.74;1688087;83;21162;-54
2021/01/04 04:30:40;;;;;;;46.53;23.60;;;;;;;3.72;76.47;101943.72;1682899;85;21633;-55
2021/01/04 04:33:47;;;;;;;45.15;21.87;;;;;;;3.76;76.39;101934.93;1717758;82;21458;-54
2021/01/04 04:36:53;;;;;;;45.80;22.42;;;;;;;3.75;76.29;101944.88;1712713;83;21934;-54
2021/01/04 04:40:00;;;;;;;45.85;23.62;;;;;;;3.73;76.27;101940.03;1687753;85;21242;-54
2021/01/04 04:43:15;;;;;;;49.03;25.52;;;;;;;3.77;76.30;101940.25;1682566;84;21402;-54
2021/01/04 04:46:43;;;;;;;49.63;23.80;;;;;;;3.78;76.26;101946.52;1712414;83;21280;-54
2021/01/04 04:50:15;;;;;;;48.28;22.98;;;;;;;3.79;76.23;101930.17;1687228;84;21202;-56
2021/01/04 04:54:14;;;;;;;47.30;23.45;;;;;;;3.76;76.07;101927.66;1682499;84;21268;-56
2021/01/04 04:57:45;;;;;;;42.53;21.35;;;;;;;3.73;76.25;101926.49;1712336;83;21737;-56
2021/01/04 05:01:27;;;;;;;55.52;26.23;;;;;;;3.75;76.28;101928.63;1687460;85;21560;-55
2021/01/04 05:04:49;;;;;;;50.48;22.00;;;;;;;3.73;76.32;101927.84;1682321;84;21212;-54
2021/01/04 05:08:01;;;;;;;46.30;24.00;;;;;;;3.77;76.41;101925.35;1712260;82;21224;-55
2021/01/04 05:11:08;;;;;;;51.95;23.10;;;;;;;3.81;76.30;101910.64;1687825;85;21345;-55
2021/01/04 05:14:26;;;;;;;46.55;23.75;;;;;;;3.76;76.09;101909.20;1682522;84;21425;-55
2021/01/04 05:17:51;;;;;;;59.25;25.70;;;;;;;3.70;76.10;101915.85;1712296;82;21224;-55
2021/01/04 05:21:21;;;;;;;55.98;26.60;;;;;;;3.68;76.17;101912.86;1712399;83;21259;-56
2021/01/04 05:24:40;;;;;;;54.60;25.48;;;;;;;3.72;76.26;101903.56;1687597;83;21256;-56
2021/01/04 05:27:50;;;;;;;58.25;26.25;;;;;;;3.75;76.17;101898.84;1682410;84;21358;-56
2021/01/04 05:31:18;;;;;;;63.85;26.37;;;;;;;3.72;76.15;101893.62;1712273;83;21228;-55
2021/01/04 05:34:59;;;;;;;58.30;26.45;;;;;;;3.70;76.23;101891.48;1687589;83;21233;-54
2021/01/04 05:38:42;;;;;;;59.73;26.50;;;;;;;3.69;76.15;101882.98;1681241;85;21475;-54
2021/01/04 05:42:20;;;;;;;63.90;25.40;;;;;;;3.65;76.27;101885.47;1683032;85;21269;-54
2021/01/04 05:45:39;;;;;;;71.17;28.75;;;;;;;3.62;76.39;101877.55;1683145;85;21921;-55
2021/01/04 05:49:18;;;;;;;74.55;29.48;;;;;;;3.55;76.41;101870.75;1683225;85;21964;-54
2021/01/04 05:52:26;;;;;;;58.23;27.17;;;;;;;3.52;76.48;101883.63;1683417;85;21790;-55
2021/01/04 05:55:32;;;;;;;59.35;26.50;;;;;;;3.49;76.74;101864.88;1713096;83;21275;-54
2021/01/04 05:58:39;;;;;;;62.40;25.23;;;;;;;3.45;76.67;101880.90;1693814;84;21450;-54
2021/01/04 06:01:48;;;;;;;54.88;26.02;;;;;;;3.43;76.82;101886.41;1715279;82;21275;-54
2021/01/04 06:04:53;;;;;;;60.83;26.68;;;;;;;3.38;76.82;101894.44;1713508;83;21301;-54
2021/01/04 06:07:59;;;;;;;52.73;24.57;;;;;;;3.35;76.94;101895.48;1713459;82;21224;-55
2021/01/04 06:11:19;;;;;;;49.65;23.30;;;;;;;3.39;76.99;101892.98;1693862;84;21226;-56
2021/01/04 06:14:27;;;;;;;46.37;23.38;;;;;;;3.37;77.05;101893.56;1713633;83;21326;-55
2021/01/04 06:17:44;;;;;;;49.27;25.75;;;;;;;3.42;77.05;101906.33;1684499;85;21455;-55
2021/01/04 06:20:55;;;;;;;62.10;27.55;;;;;;;3.39;77.00;101896.17;1684651;85;21338;-55
2021/01/04 06:24:06;;;;;;;77.65;29.82;;;;;;;3.46;77.17;101896.17;1698303;83;21497;-55
2021/01/04 06:27:39;;;;;;;64.22;26.85;;;;;;;3.56;77.26;101891.47;1693894;84;21528;-55
2021/01/04 06:30:46;;;;;;;60.88;27.52;;;;;;;3.63;77.03;101887.39;1714250;83;21355;-58
2021/01/04 06:34:02;;;;;;;66.20;29.87;;;;;;;3.68;76.96;101889.84;1713740;82;21247;-57
2021/01/04 06:37:19;;;;;;;62.70;28.80;;;;;;;3.63;76.68;101892.81;1710382;82;21216;-58
2021/01/04 06:40:44;;;;;;;68.90;28.57;;;;;;;3.61;76.74;101902.89;1711141;83;21309;-55
2021/01/04 06:43:49;;;;;;;66.28;28.10;;;;;;;3.57;76.69;101898.61;1638703;86;21274;-55
2021/01/04 06:47:10;;;;;;;59.73;26.75;;;;;;;3.54;76.81;101896.09;1702379;84;21753;-56
2021/01/04 06:50:28;;;;;;;64.05;28.38;;;;;;;3.53;76.85;101894.37;1647387;86;21198;-55
2021/01/04 06:53:44;;;;;;;69.85;27.87;;;;;;;3.49;76.92;101896.86;1667176;84;21265;-55
2021/01/04 06:57:16;;;;;;;60.48;28.30;;;;;;;3.48;77.01;101894.24;1704479;83;21239;-55
2021/01/04 07:00:42;;;;;;;63.20;27.25;;;;;;;3.48;77.08;101882.06;1688626;84;21252;-54
2021/01/04 07:04:35;;;;;;;58.50;25.90;;;;;;;3.44;77.05;101875.95;1687321;83;21905;-54
2021/01/04 07:08:20;;;;;;;67.75;27.00;;;;;;;3.41;77.26;101850.44;1684067;84;21233;-54
2021/01/04 07:11:52;;;;;;;66.02;27.13;;;;;;;3.46;77.45;101848.80;1711025;83;21227;-54
2021/01/04 07:15:26;;;;;;;57.15;26.62;;;;;;;3.52;77.35;101860.63;1691667;85;21342;-55
2021/01/04 07:19:07;;;;;;;51.92;24.55;;;;;;;3.54;77.30;101855.48;1709489;82;21780;-55
2021/01/04 07:22:32;;;;;;;53.68;24.87;;;;;;;3.51;77.16;101846.67;1693815;84;21216;-55
2021/01/04 07:26:04;;;;;;;56.48;26.33;;;;;;;3.46;77.17;101855.09;1667698;85;21302;-55
2021/01/04 07:29:41;;;;;;;55.48;25.45;;;;;;;3.39;77.27;101861.86;1664146;85;21309;-55
2021/01/04 07:33:02;;;;;;;54.75;25.97;;;;;;;3.35;77.37;101854.88;1654853;85;21222;-55
2021/01/04 07:36:28;;;;;;;57.00;26.45;;;;;;;3.40;77.53;101857.30;1664510;86;21270;-56
2021/01/04 07:39:57;;;;;;;55.03;25.45;;;;;;;3.39;77.48;101849.69;1637041;87;21239;-56
2021/01/04 07:43:40;;;;;;;53.60;24.92;;;;;;;3.41;77.58;101840.11;1636961;86;21303;-56
2021/01/04 07:47:21;;;;;;;58.95;26.87;;;;;;;3.46;77.53;101846.97;1642220;86;21255;-55
2021/01/04 07:51:08;;;;;;;52.60;25.10;;;;;;;3.42;77.34;101849.96;1657670;85;21895;-56
2021/01/04 07:54:22;;;;;;;57.95;27.07;;;;;;;3.37;77.47;101851.61;1687209;84;21229;-56
2021/01/04 07:58:01;;;;;;;55.38;26.65;;;;;;;3.35;77.55;101867.53;1646180;86;21283;-57
2021/01/04 08:01:50;;;;;;;55.58;25.72;;;;;;;3.40;77.71;101867.66;1646520;86;21437;-55
2021/01/04 08:05:19;;;;;;;48.28;23.18;;;;;;;3.39;77.55;101854.22;1644638;86;21850;-55
2021/01/04 08:08:35;;;;;;;49.53;23.30;;;;;;;3.37;77.64;101861.08;1632407;86;21303;-54
2021/01/04 08:12:02;;;;;;;58.55;25.17;;;;;;;3.39;77.55;101856.92;1658234;86;21864;-56
2021/01/04 08:15:39;;;;;;;55.43;25.20;;;;;;;3.37;77.63;101857.02;1661032;86;21394;-55
2021/01/04 08:18:45;;;;;;;66.42;25.85;;;;;;;3.37;77.52;101850.25;1657402;86;21283;-56
2021/01/04 08:22:07;;;;;;;54.93;25.35;;;;;;;3.38;77.75;101837.09;1630440;88;21284;-55
2021/01/04 08:25:19;;;;;;;48.40;21.55;;;;;;;3.53;77.75;101846.11;1629931;88;21582;-56
2021/01/04 08:28:55;;;;;;;48.15;24.47;;;;;;;3.64;77.42;101839.06;1642410;86;21332;-56
2021/01/04 08:32:24;;;;;;;49.73;24.43;;;;;;;3.64;77.06;101842.25;1657016;86;21623;-55
2021/01/04 08:35:39;;;;;;;43.95;21.65;;;;;;;3.59;76.89;101843.02;1656278;86;21295;-56
2021/01/04 08:38:45;;;;;;;35.15;19.35;;;;;;;3.52;76.84;101853.34;1666574;83;21757;-55
2021/01/04 08:41:51;;;;;;;37.03;19.75;;;;;;;3.47;76.70;101856.85;1679670;85;21327;-56
2021/01/04 08:45:04;;;;;;;48.73;23.70;;;;;;;3.45;76.69;101860.59;1636195;86;21236;-53
2021/01/04 08:48:25;;;;;;;45.65;22.65;;;;;;;3.40;76.71;101873.06;1677103;83;21224;-54
2021/01/04 08:51:42;;;;;;;46.92;23.60;;;;;;;3.40;76.90;101869.01;1675803;85;21256;-57
2021/01/04 08:54:47;;;;;;;45.30;22.20;;;;;;;3.41;76.95;101874.80;1672792;85;21244;-55
2021/01/04 08:57:52;;;;;;;44.13;23.30;;;;;;;3.43;76.99;101869.29;1661034;85;21804;-55
2021/01/04 09:01:13;;;;;;;46.20;22.87;;;;;;;3.48;77.10;101861.76;1666221;85;21210;-54
2021/01/04 09:04:20;;;;;;;51.48;26.93;;;;;;;3.56;77.17;101846.80;1654049;85;21345;-55
2021/01/04 09:07:27;;;;;;;46.83;23.07;;;;;;;3.70;77.11;101840.50;1645171;86;21859;-54
2021/01/04 09:10:56;;;;;;;42.67;22.22;;;;;;;3.79;76.83;101839.44;1674338;85;21714;-54
2021/01/04 09:14:01;;;;;;;43.83;20.00;;;;;;;3.85;76.69;101829.59;1679178;85;21284;-55
2021/01/04 09:17:20;;;;;;;42.05;21.87;;;;;;;3.84;76.27;101826.95;1677110;85;21860;-55
2021/01/04 09:20:48;;;;;;;32.08;18.62;;;;;;;3.80;76.40;101818.17;1681583;85;21359;-54
2021/01/04 09:23:55;;;;;;;35.52;19.12;;;;;;;3.85;76.07;101816.05;1681483;84;21225;-54
2021/01/04 09:27:13;;;;;;;38.83;18.82;;;;;;;3.80;75.87;101823.59;1682030;85;21371;-55
2021/01/04 09:30:19;;;;;;;35.23;18.60;;;;;;;3.79;75.78;101826.40;1680644;85;21985;-55
2021/01/04 09:33:29;;;;;;;41.02;22.40;;;;;;;3.71;75.56;101821.95;1682110;84;21317;-55
2021/01/04 09:36:34;;;;;;;39.48;21.07;;;;;;;3.65;75.75;101828.61;1681382;85;21237;-55
2021/01/04 09:39:43;;;;;;;35.88;17.27;;;;;;;3.67;75.95;101821.74;1695274;80;21406;-55
2021/01/04 09:42:47;;;;;;;36.55;19.45;;;;;;;3.66;75.89;101815.48;1711387;82;21667;-57
2021/01/04 09:45:55;;;;;;;42.62;21.95;;;;;;;3.63;75.94;101826.47;1686530;85;21190;-55
2021/01/04 09:49:13;;;;;;;39.35;20.77;;;;;;;3.71;76.01;101826.02;1680086;85;21304;-55
2021/01/04 09:52:36;;;;;;;34.58;18.32;;;;;;;3.77;75.95;101815.67;1709590;83;21480;-57
2021/01/04 09:55:45;;;;;;;34.45;17.42;;;;;;;3.76;75.72;101814.41;1682804;85;21351;-56
2021/01/04 09:58:50;;;;;;;32.15;17.73;;;;;;;3.68;75.63;101825.70;1702375;83;21244;-56
2021/01/04 10:02:05;;;;;;;33.42;17.80;;;;;;;3.67;75.64;101823.98;1687838;85;21223;-56
2021/01/04 10:05:16;;;;;;;35.92;19.77;;;;;;;3.62;75.66;101820.69;1688131;83;21223;-56
2021/01/04 10:08:28;;;;;;;35.95;18.07;;;;;;;3.63;75.67;101818.34;1710445;82;21772;-55
2021/01/04 10:11:34;;;;;;;29.65;17.20;;;;;;;3.63;75.74;101817.00;1685999;85;21183;-55
2021/01/04 10:14:39;;;;;;;34.78;19.17;;;;;;;3.63;75.53;101818.86;1645189;85;21339;-55
2021/01/04 10:17:51;;;;;;;36.28;19.17;;;;;;;3.59;75.61;101811.41;1711300;83;21203;-56
2021/01/04 10:21:02;;;;;;;37.73;19.35;;;;;;;3.58;75.46;101806.09;1656805;86;21184;-57
2021/01/04 10:24:13;;;;;;;34.05;18.62;;;;;;;3.50;75.67;101801.16;1680763;85;21251;-56
2021/01/04 10:27:25;;;;;;;34.10;19.67;;;;;;;3.51;75.80;101801.54;1709243;84;21768;-57
2021/01/04 10:30:33;;;;;;;35.30;19.50;;;;;;;3.56;76.01;101796.70;1675760;85;21243;-56
2021/01/04 10:33:42;;;;;;;35.95;20.37;;;;;;;3.63;76.02;101794.48;1682654;84;21248;-55
2021/01/04 10:36:49;;;;;;;30.35;17.75;;;;;;;3.69;75.97;101790.03;1682823;85;21215;-56
2021/01/04 10:39:54;;;;;;;30.80;17.87;;;;;;;3.68;75.63;101772.91;1682609;83;21370;-56
2021/01/04 10:43:08;;;;;;;37.30;20.30;;;;;;;3.67;75.58;101782.48;1688624;83;21251;-56
2021/01/04 10:46:40;;;;;;;40.45;21.82;;;;;;;3.62;75.64;101776.01;1688932;83;21756;-55
2021/01/04 10:49:45;;;;;;;40.33;21.87;;;;;;;3.70;75.78;101783.16;1716195;83;21391;-55
2021/01/04 10:53:07;;;;;;;33.53;17.57;;;;;;;3.78;75.74;101786.25;1717370;83;21255;-55
2021/01/04 10:56:28;;;;;;;34.08;18.05;;;;;;;3.85;75.50;101791.67;1717277;83;21220;-56
2021/01/04 10:59:49;;;;;;;40.43;22.02;;;;;;;3.81;75.20;101785.17;1717351;83;21457;-55
2021/01/04 11:02:56;;;;;;;35.92;19.95;;;;;;;3.72;75.22;101792.06;1680732;85;21289;-55
2021/01/04 11:06:01;;;;;;;31.73;17.52;;;;;;;3.73;75.31;101792.91;1685624;85;21934;-55
2021/01/04 11:09:22;;;;;;;27.73;14.20;;;;;;;3.76;75.36;101798.16;1703076;83;21276;-55
2021/01/04 11:12:31;;;;;;;33.08;18.98;;;;;;;3.78;75.06;101793.50;1705329;82;21277;-55
2021/01/04 11:15:40;;;;;;;35.10;20.20;;;;;;;3.69;74.97;101788.20;1704433;83;21189;-55
2021/01/04 11:19:01;;;;;;;41.25;21.25;;;;;;;3.70;75.05;101796.70;1672825;85;21362;-56
2021/01/04 11:22:32;;;;;;;33.70;18.15;;;;;;;3.72;75.11;101789.83;1636427;86;21227;-56
2021/01/04 11:25:38;;;;;;;33.88;17.17;;;;;;;3.81;75.01;101790.11;1703309;83;21840;-55
2021/01/04 11:28:43;;;;;;;29.77;16.85;;;;;;;3.90;75.01;101788.66;1673922;83;21767;-56
2021/01/04 11:31:49;;;;;;;28.32;16.27;;;;;;;3.91;74.77;101787.20;1704084;83;21193;-56
2021/01/04 11:35:02;;;;;;;32.58;17.50;;;;;;;3.93;74.69;101790.66;1682681;84;21231;-55
2021/01/04 11:38:09;;;;;;;36.45;17.95;;;;;;;3.98;74.67;101791.75;1710901;83;21307;-55
2021/01/04 11:41:13;;;;;;;30.17;17.17;;;;;;;4.00;74.35;101790.66;1705339;83;21773;-56
2021/01/04 11:44:18;;;;;;;32.40;16.60;;;;;;;3.91;74.33;101791.74;1712083;83;22077;-57
2021/01/04 11:47:23;;;;;;;29.87;15.55;;;;;;;3.89;74.31;101797.27;1701478;83;21296;-56
2021/01/04 11:50:29;;;;;;;25.72;13.78;;;;;;;3.91;74.32;101795.80;1719863;83;21367;-57
2021/01/04 11:53:37;;;;;;;28.32;16.00;;;;;;;3.84;74.12;101790.38;1711296;83;21740;-55
2021/01/04 11:56:43;;;;;;;27.50;15.48;;;;;;;3.78;74.14;101799.80;1719434;83;21312;-56
2021/01/04 11:59:49;;;;;;;25.85;14.85;;;;;;;3.73;74.17;101789.73;1711886;83;21840;-56
2021/01/04 12:02:54;;;;;;;27.20;14.85;;;;;;;3.69;74.05;101796.33;1703987;83;21240;-54
2021/01/04 12:06:00;;;;;;;24.98;13.90;;;;;;;3.61;73.97;101790.52;1695743;82;21228;-55
2021/01/04 12:09:06;;;;;;;22.67;13.35;;;;;;;3.48;73.85;101792.27;1710674;83;21243;-55
2021/01/04 12:12:21;;;;;;;19.35;11.73;;;;;;;3.37;73.99;101802.89;1691081;83;21596;-55
2021/01/04 12:15:27;;;;;;;23.80;13.93;;;;;;;3.32;74.23;101806.36;1690188;83;21781;-55
2021/01/04 12:18:33;;;;;;;27.25;14.45;;;;;;;3.28;74.10;101802.59;1664767;85;21797;-55
2021/01/04 12:21:39;;;;;;;64.77;26.57;;;;;;;3.25;74.08;101812.25;1651817;86;21240;-56
2021/01/04 12:24:45;;;;;;;44.73;20.45;;;;;;;3.20;74.12;101813.89;1686332;84;21240;-56
2021/01/04 12:27:51;;;;;;;51.33;25.45;;;;;;;3.22;74.11;101808.39;1698027;84;21861;-56
2021/01/04 12:30:57;;;;;;;40.83;22.45;;;;;;;3.19;74.12;101807.23;1718939;83;21200;-56
2021/01/04 12:34:01;;;;;;;25.08;14.93;;;;;;;3.23;74.32;101815.53;1720226;83;21298;-56
2021/01/04 12:37:06;;;;;;;22.67;13.28;;;;;;;3.26;74.32;101805.86;1715199;83;21309;-55
2021/01/04 12:40:21;;;;;;;22.65;13.80;;;;;;;3.31;74.20;101799.22;1690955;84;21181;-56
2021/01/04 12:43:27;;;;;;;24.87;14.55;;;;;;;3.32;74.23;101806.36;1656079;84;21873;-55
2021/01/04 12:46:32;;;;;;;26.73;14.75;;;;;;;3.35;74.07;101809.34;1715911;83;21455;-55
2021/01/04 12:49:39;;;;;;;25.15;14.78;;;;;;;3.43;74.26;101802.97;1714276;83;21288;-55
2021/01/04 12:52:49;;;;;;;21.05;12.43;;;;;;;3.51;73.98;101792.06;1712120;82;22692;-55
2021/01/04 12:55:54;;;;;;;23.30;13.90;;;;;;;3.57;73.51;101783.55;1715511;82;21402;-55
2021/01/04 12:59:05;;;;;;;27.32;14.68;;;;;;;3.54;73.35;101782.39;1716030;82;21255;-56
2021/01/04 13:02:08;;;;;;;22.67;13.45;;;;;;;3.51;73.05;101785.77;1716998;83;21883;-55
2021/01/04 13:05:17;;;;;;;26.75;14.25;;;;;;;3.40;73.02;101781.05;1714233;83;21224;-55
2021/01/04 13:08:22;;;;;;;25.45;13.83;;;;;;;3.35;73.21;101780.92;1739593;82;21417;-55
2021/01/04 13:11:30;;;;;;;24.45;13.40;;;;;;;3.35;73.31;101784.98;1725534;82;21435;-55
2021/01/04 13:14:46;;;;;;;26.20;13.38;;;;;;;3.35;73.14;101784.52;1677374;83;21252;-55
2021/01/04 13:17:54;;;;;;;28.98;14.40;;;;;;;3.34;73.14;101792.26;1716036;82;21256;-56
2021/01/04 13:20:59;;;;;;;26.77;14.60;;;;;;;3.32;73.17;101781.12;1715477;83;21231;-55
2021/01/04 13:24:04;;;;;;;27.17;14.85;;;;;;;3.32;73.33;101782.00;1715682;82;21230;-55
2021/01/04 13:27:09;;;;;;;28.50;15.63;;;;;;;3.38;73.38;101776.20;1690169;83;21215;-56
2021/01/04 13:30:15;;;;;;;32.50;16.57;;;;;;;3.50;73.52;101770.50;1698302;83;21204;-53
2021/01/04 13:33:20;;;;;;;33.92;16.70;;;;;;;3.64;73.40;101767.31;1716238;83;21239;-54
2021/01/04 13:36:27;;;;;;;31.90;17.02;;;;;;;3.77;73.21;101776.88;1715961;83;21243;-53
2021/01/04 13:39:33;;;;;;;33.25;16.93;;;;;;;3.84;72.82;101779.55;1715832;83;21612;-53
2021/01/04 13:42:39;;;;;;;32.20;17.30;;;;;;;3.90;72.64;101784.09;1698273;82;21605;-53
2021/01/04 13:45:49;;;;;;;34.50;16.57;;;;;;;3.97;72.27;101782.73;1673277;85;21830;-53
2021/01/04 13:48:57;;;;;;;24.63;14.28;;;;;;;3.96;72.00;101777.42;1712075;83;21216;-53
2021/01/04 13:52:05;;;;;;;32.55;16.90;;;;;;;3.87;71.75;101780.73;1713440;83;22232;-54
2021/01/04 13:55:14;;;;;;;33.42;15.85;;;;;;;3.72;71.73;101779.88;1699632;83;21251;-52
2021/01/04 13:58:23;;;;;;;37.17;17.60;;;;;;;3.67;71.81;101775.70;1665077;85;21305;-53
2021/01/04 14:01:34;;;;;;;32.88;16.77;;;;;;;3.67;71.97;101775.23;1715084;83;21224;-53
2021/01/04 14:04:40;;;;;;;37.05;18.45;;;;;;;3.63;71.84;101785.86;1692718;83;21240;-52
2021/01/04 14:07:46;;;;;;;34.65;17.37;;;;;;;3.58;71.85;101783.95;1713062;82;21196;-53
2021/01/04 14:10:52;;;;;;;39.40;17.70;;;;;;;3.52;72.08;101786.18;1688688;85;21227;-52
2021/01/04 14:13:57;;;;;;;36.15;16.82;;;;;;;3.51;72.09;101785.30;1688031;83;21773;-53
2021/01/04 14:17:03;;;;;;;36.08;16.45;;;;;;;3.55;72.36;101774.64;1689710;84;21209;-53
2021/01/04 14:20:09;;;;;;;35.33;16.62;;;;;;;3.65;72.21;101771.75;1711415;84;21208;-53
2021/01/04 14:23:14;;;;;;;33.53;16.67;;;;;;;3.62;72.15;101770.59;1711504;82;21374;-53
2021/01/04 14:26:40;;;;;;;31.35;15.38;;;;;;;3.68;72.17;101771.55;1692829;84;21219;-53
2021/01/04 14:29:45;;;;;;;37.90;20.35;;;;;;;3.69;71.79;101769.25;1710822;82;21267;-53
2021/01/04 14:32:51;;;;;;;37.83;18.55;;;;;;;3.53;71.42;101759.48;1714576;83;21784;-54
2021/01/04 14:35:57;;;;;;;38.90;16.35;;;;;;;3.32;71.70;101779.77;1717531;83;21208;-54
2021/01/04 14:39:04;;;;;;;39.00;18.23;;;;;;;3.14;72.03;101776.37;1689859;85;21363;-54
2021/01/04 14:42:13;;;;;;;33.18;16.93;;;;;;;3.02;72.44;101783.89;1717956;83;21625;-54
2021/01/04 14:45:20;;;;;;;32.58;14.93;;;;;;;2.97;72.85;101797.70;1717977;82;21239;-57
2021/01/04 14:48:26;;;;;;;31.90;16.50;;;;;;;3.02;73.23;101800.13;1717517;82;21280;-55
2021/01/04 14:51:30;;;;;;;26.30;14.90;;;;;;;3.08;73.13;101790.78;1716899;83;21219;-53
2021/01/04 14:54:38;;;;;;;29.48;15.05;;;;;;;3.04;73.02;101800.91;1716078;82;21243;-54
2021/01/04 14:57:43;;;;;;;28.85;14.80;;;;;;;3.04;73.18;101803.62;1691380;83;21307;-55
2021/01/04 15:00:51;;;;;;;28.77;14.90;;;;;;;3.00;73.07;101792.58;1717415;83;21809;-53